Athens Township, Pennsylvania
Current Conditions -  °F | °C
As of 8:53 PM on Friday 28 Nov 2014 (Local Time) from KBGM Reporting Station
Clear Clear  
Wind Chill: 19°   Ceiling: Unl
Heat Index: 19°   Visibility: 10mi
Dew Point:   Wind: 3mph
Humidity: 65%   Direction: 250°WSW
Pressure: 30.17"   Gusts: NA
Location:  41.9771°N, 76.4144°W
Report Text: KBGM 290153Z 25003KT 10SM CLR M07/M13 A3017 RMK AO2 SLP236 T10721128
Loading
Personal Weather Stations






























Interactive Weather Map New forecast layout! Learn more

10-Day Weather Forecast

Advertisements
Track Severe Weather on mobile